createdAt,value
2024-03-09T00:00:58.672Z,100886.44
2024-03-09T00:03:32.637Z,100892.53
2024-03-09T00:06:13.380Z,100884.78
2024-03-09T00:08:52.315Z,100887.34
2024-03-09T00:11:22.065Z,100903.81
2024-03-09T00:13:52.546Z,100905.50
2024-03-09T00:16:21.455Z,100916.69
2024-03-09T00:18:55.775Z,100929.59
2024-03-09T00:21:25.584Z,100939.97
2024-03-09T00:23:54.206Z,100935.66
2024-03-09T00:26:24.628Z,100947.75
2024-03-09T00:28:56.129Z,100954.66
2024-03-09T00:31:27.489Z,100939.13
2024-03-09T00:33:59.277Z,100925.28
2024-03-09T00:36:31.677Z,100909.00
2024-03-09T00:39:15.564Z,100909.00
2024-03-09T00:41:44.863Z,100908.19
2024-03-09T00:44:17.550Z,100925.47
2024-03-09T00:46:48.067Z,100923.78
2024-03-09T00:49:21.636Z,100904.75
2024-03-09T00:51:53.582Z,100916.88
2024-03-09T00:54:24.613Z,100896.97
2024-03-09T00:56:55.129Z,100893.56
2024-03-09T00:59:26.463Z,100902.22
2024-03-09T01:02:21.592Z,100890.06
2024-03-09T01:04:52.681Z,100881.50
2024-03-09T01:07:29.740Z,100873.75
2024-03-09T01:10:17.369Z,100871.25
2024-03-09T01:12:50.496Z,100880.00
2024-03-09T01:15:20.582Z,100880.06
2024-03-09T01:17:51.662Z,100877.53
2024-03-09T01:20:20.951Z,100881.09
2024-03-09T01:22:53.333Z,100879.50
2024-03-09T01:25:26.365Z,100874.47
2024-03-09T01:27:57.274Z,100879.78
2024-03-09T01:30:28.549Z,100881.56
2024-03-09T01:32:58.069Z,100874.69
2024-03-09T01:35:30.163Z,100867.84
2024-03-09T01:38:00.820Z,100875.59
2024-03-09T01:40:36.587Z,100869.56
2024-03-09T01:43:18.623Z,100867.97
2024-03-09T01:45:55.878Z,100864.63
2024-03-09T01:48:30.193Z,100862.94
2024-03-09T01:51:09.174Z,100861.34
2024-03-09T01:53:44.178Z,100856.19
2024-03-09T01:56:16.402Z,100855.34
2024-03-09T01:58:46.506Z,100857.06
2024-03-09T02:01:29.399Z,100849.38
2024-03-09T02:03:59.653Z,100837.38
2024-03-09T02:06:33.946Z,100827.94
2024-03-09T02:09:13.211Z,100837.53
2024-03-09T02:11:44.393Z,100840.19
2024-03-09T02:14:16.495Z,100824.72
2024-03-09T02:16:46.102Z,100819.59
2024-03-09T02:19:19.230Z,100821.34
2024-03-09T02:21:50.338Z,100829.19
2024-03-09T02:24:24.930Z,100820.56
2024-03-09T02:26:54.418Z,100813.59
2024-03-09T02:29:28.458Z,100808.53
2024-03-09T02:31:58.024Z,100805.94
2024-03-09T02:34:31.125Z,100811.16
2024-03-09T02:37:12.666Z,100806.91
2024-03-09T02:39:48.010Z,100819.03
2024-03-09T02:42:17.483Z,100820.66
2024-03-09T02:44:55.864Z,100825.16
2024-03-09T02:47:24.422Z,100823.59
2024-03-09T02:49:56.440Z,100826.16
2024-03-09T02:52:32.608Z,100832.16
2024-03-09T02:55:22.577Z,100842.50
2024-03-09T02:57:54.857Z,100847.72
2024-03-09T03:00:30.356Z,100850.41
2024-03-09T03:03:40.072Z,100844.34
2024-03-09T03:06:14.096Z,100831.41
2024-03-09T03:08:51.721Z,100826.25
2024-03-09T03:11:35.908Z,100811.69
2024-03-09T03:14:18.155Z,100817.78
2024-03-09T03:17:00.516Z,100824.78
2024-03-09T03:19:45.313Z,100835.16
2024-03-09T03:22:32.140Z,100842.03
2024-03-09T03:25:16.919Z,100841.13
2024-03-09T03:27:49.086Z,100836.84
2024-03-09T03:30:24.638Z,100846.31
2024-03-09T03:32:58.421Z,100843.81
2024-03-09T03:35:31.226Z,100837.88
2024-03-09T03:38:12.734Z,100824.13
2024-03-09T03:40:44.258Z,100819.03
2024-03-09T03:43:16.369Z,100815.59
2024-03-09T03:45:49.122Z,100800.13
2024-03-09T03:48:29.301Z,100790.63
2024-03-09T03:51:15.540Z,100787.22
2024-03-09T03:53:48.152Z,100795.88
2024-03-09T03:56:20.645Z,100801.97
2024-03-09T03:58:51.216Z,100802.03
2024-03-09T04:01:27.997Z,100810.66
2024-03-09T04:03:59.104Z,100809.00
2024-03-09T04:06:31.403Z,100807.31
2024-03-09T04:09:17.960Z,100802.16
2024-03-09T04:11:51.751Z,100796.19
2024-03-09T04:14:20.580Z,100786.78
2024-03-09T04:16:58.724Z,100781.69
2024-03-09T04:19:30.267Z,100761.09
2024-03-09T04:22:01.518Z,100765.44
2024-03-09T04:24:42.688Z,100778.38
2024-03-09T04:27:16.112Z,100773.22
2024-03-09T04:29:50.866Z,100778.38
2024-03-09T04:32:24.038Z,100769.63
2024-03-09T04:35:00.651Z,100767.16
2024-03-09T04:37:50.384Z,100796.31
2024-03-09T04:40:24.197Z,100793.84
2024-03-09T04:42:56.927Z,100788.72
2024-03-09T04:45:28.702Z,100785.25
2024-03-09T04:48:08.515Z,100781.81
2024-03-09T04:50:43.458Z,100788.69
2024-03-09T04:53:15.722Z,100793.88
2024-03-09T04:55:54.790Z,100805.91
2024-03-09T04:58:44.799Z,100794.69
2024-03-09T05:01:21.124Z,100792.16
2024-03-09T05:03:56.004Z,100812.00
2024-03-09T05:06:31.010Z,100819.69
2024-03-09T05:08:59.768Z,100816.28
2024-03-09T05:11:40.557Z,100813.78
2024-03-09T05:14:17.343Z,100817.31
2024-03-09T05:16:49.132Z,100795.03
2024-03-09T05:19:23.593Z,100801.06
2024-03-09T05:21:55.974Z,100793.41
2024-03-09T05:24:28.945Z,100802.06
2024-03-09T05:26:58.959Z,100804.69
2024-03-09T05:29:39.174Z,100821.00
2024-03-09T05:32:12.708Z,100820.13
2024-03-09T05:34:57.781Z,100825.28
2024-03-09T05:37:30.997Z,100831.34
2024-03-09T05:40:00.183Z,100839.19
2024-03-09T05:42:50.154Z,100851.25
2024-03-09T05:45:22.640Z,100855.59
2024-03-09T05:47:56.677Z,100845.34
2024-03-09T05:50:40.331Z,100848.81
2024-03-09T05:53:16.784Z,100850.56
2024-03-09T05:55:48.554Z,100855.78
2024-03-09T05:58:19.565Z,100859.22
2024-03-09T06:00:51.386Z,100867.78
2024-03-09T06:03:30.092Z,100866.91
2024-03-09T06:05:59.719Z,100860.06
2024-03-09T06:08:30.649Z,100860.06
2024-03-09T06:11:01.784Z,100857.50
2024-03-09T06:13:43.955Z,100851.53
2024-03-09T06:16:19.416Z,100848.94
2024-03-09T06:18:55.505Z,100849.78
2024-03-09T06:21:31.932Z,100854.97
2024-03-09T06:24:13.843Z,100868.78
2024-03-09T06:26:46.860Z,100862.78
2024-03-09T06:29:17.721Z,100858.50
2024-03-09T06:31:50.851Z,100849.91
2024-03-09T06:34:24.074Z,100837.88
2024-03-09T06:36:58.592Z,100844.78
2024-03-09T06:39:37.136Z,100862.78
2024-03-09T06:42:14.038Z,100871.41
2024-03-09T06:44:44.833Z,100852.53
2024-03-09T06:47:15.413Z,100873.13
2024-03-09T06:49:46.673Z,100880.88
2024-03-09T06:52:19.916Z,100875.75
2024-03-09T06:54:49.406Z,100862.88
2024-03-09T06:57:20.576Z,100856.84
2024-03-09T06:59:58.141Z,100850.81
2024-03-09T07:02:31.608Z,100832.78
2024-03-09T07:05:14.348Z,100837.88
2024-03-09T07:07:46.567Z,100832.75
2024-03-09T07:10:16.148Z,100825.03
2024-03-09T07:12:48.847Z,100824.19
2024-03-09T07:15:18.659Z,100809.56
2024-03-09T07:17:51.542Z,100801.84
2024-03-09T07:20:26.186Z,100805.34
2024-03-09T07:22:56.056Z,100803.66
2024-03-09T07:25:30.669Z,100796.84
2024-03-09T07:28:01.908Z,100798.59
2024-03-09T07:30:43.045Z,100795.16
2024-03-09T07:33:14.628Z,100796.03
2024-03-09T07:35:46.405Z,100794.34
2024-03-09T07:38:15.853Z,100768.56
2024-03-09T07:40:45.954Z,100774.56
2024-03-09T07:43:19.859Z,100766.00
2024-03-09T07:45:49.227Z,100747.16
2024-03-09T07:48:18.456Z,100747.16
2024-03-09T07:50:51.070Z,100733.44
2024-03-09T07:53:20.649Z,100728.31
2024-03-09T07:55:49.958Z,100702.59
2024-03-09T07:58:25.550Z,100685.41
2024-03-09T08:00:59.093Z,100686.25
2024-03-09T08:03:30.270Z,100687.16
2024-03-09T08:05:59.980Z,100671.72
2024-03-09T08:08:29.305Z,100667.44
2024-03-09T08:11:01.223Z,100669.09
2024-03-09T08:13:44.988Z,100680.28
2024-03-09T08:16:13.596Z,100671.75
2024-03-09T08:18:43.393Z,100675.22
2024-03-09T08:21:12.656Z,100674.41
2024-03-09T08:23:45.402Z,100681.28
2024-03-09T08:26:14.740Z,100690.75
2024-03-09T08:28:51.693Z,100688.16
2024-03-09T08:31:21.431Z,100715.63
2024-03-09T08:33:53.303Z,100691.59
2024-03-09T08:36:25.877Z,100686.47
2024-03-09T08:38:59.795Z,100675.28
2024-03-09T08:41:43.228Z,100657.25
2024-03-09T08:44:15.060Z,100652.13
2024-03-09T08:46:45.751Z,100650.41
2024-03-09T08:49:17.091Z,100628.09
2024-03-09T08:51:46.810Z,100609.25
2024-03-09T08:54:20.245Z,100597.25
2024-03-09T08:56:53.910Z,100610.09
2024-03-09T08:59:25.309Z,100602.38
2024-03-09T09:01:56.970Z,100613.50
2024-03-09T09:04:27.999Z,100616.06
2024-03-09T09:06:59.048Z,100628.09
2024-03-09T09:09:28.538Z,100622.97
2024-03-09T09:12:00.413Z,100592.94
2024-03-09T09:14:29.444Z,100610.09
2024-03-09T09:16:59.413Z,100611.78
2024-03-09T09:19:28.578Z,100603.25
2024-03-09T09:21:59.250Z,100599.78
2024-03-09T09:24:27.677Z,100578.38
2024-03-09T09:26:57.777Z,100537.22
2024-03-09T09:29:30.278Z,100508.97
2024-03-09T09:32:03.544Z,100523.66
2024-03-09T09:34:43.081Z,100538.31
2024-03-09T09:37:14.140Z,100527.19
2024-03-09T09:39:45.180Z,100511.78
2024-03-09T09:42:15.707Z,100474.09
2024-03-09T09:44:46.919Z,100469.84
2024-03-09T09:47:18.323Z,100471.53
2024-03-09T09:49:47.685Z,100462.09
2024-03-09T09:52:18.323Z,100468.94
2024-03-09T09:54:47.435Z,100473.19
2024-03-09T09:57:19.794Z,100482.66
2024-03-09T09:59:48.393Z,100464.66
2024-03-09T10:02:50.068Z,100454.38
2024-03-09T10:05:20.468Z,100458.63
2024-03-09T10:08:13.320Z,100461.22
2024-03-09T10:10:50.288Z,100453.50
2024-03-09T10:13:20.064Z,100461.16
2024-03-09T10:15:52.610Z,100462.91
2024-03-09T10:18:28.416Z,100468.06
2024-03-09T10:21:10.101Z,100494.59
2024-03-09T10:23:47.572Z,100517.75
2024-03-09T10:26:18.187Z,100527.97
2024-03-09T10:29:09.416Z,100534.81
2024-03-09T10:31:52.065Z,100521.91
2024-03-09T10:34:21.125Z,100525.41
2024-03-09T10:36:50.311Z,100519.41
2024-03-09T10:39:22.041Z,100514.28
2024-03-09T10:42:00.011Z,100523.69
2024-03-09T10:44:31.046Z,100514.28
2024-03-09T10:47:12.153Z,100517.72
2024-03-09T10:49:49.800Z,100510.00
2024-03-09T10:52:25.536Z,100499.69
2024-03-09T10:55:13.230Z,100502.25
2024-03-09T10:57:49.006Z,100489.38
2024-03-09T11:00:30.127Z,100472.25
2024-03-09T11:03:13.963Z,100461.09
2024-03-09T11:05:50.057Z,100434.56
2024-03-09T11:08:20.190Z,100438.84
2024-03-09T11:10:51.631Z,100418.25
2024-03-09T11:13:21.350Z,100427.72
2024-03-09T11:15:53.499Z,100442.28
2024-03-09T11:18:58.679Z,100454.28
2024-03-09T11:21:31.732Z,100452.53
2024-03-09T11:24:15.399Z,100433.69
2024-03-09T11:26:57.720Z,100425.16
2024-03-09T11:29:45.922Z,100417.44
2024-03-09T11:32:25.074Z,100412.34
2024-03-09T11:35:42.922Z,100403.78
2024-03-09T11:38:15.384Z,100385.78
2024-03-09T11:40:50.227Z,100381.53
2024-03-09T11:43:22.728Z,100382.34
2024-03-09T11:45:51.651Z,100392.63
2024-03-09T11:48:39.862Z,100398.59
2024-03-09T11:51:20.052Z,100409.72
2024-03-09T11:53:51.551Z,100409.72
2024-03-09T11:56:23.952Z,100408.00
2024-03-09T11:58:57.766Z,100407.19
2024-03-09T12:01:29.438Z,100411.50
2024-03-09T12:04:03.071Z,100418.34
2024-03-09T12:06:44.907Z,100411.47
2024-03-09T12:09:25.012Z,100402.94
2024-03-09T12:11:59.654Z,100399.53
2024-03-09T12:14:46.472Z,100388.38
2024-03-09T12:17:19.029Z,100366.91
2024-03-09T12:19:51.899Z,100361.78
2024-03-09T12:22:28.319Z,100346.34
2024-03-09T12:25:01.417Z,100333.53
2024-03-09T12:27:47.465Z,100305.19
2024-03-09T12:30:19.324Z,100306.94
2024-03-09T12:32:50.073Z,100294.06
2024-03-09T12:35:23.774Z,100289.75
2024-03-09T12:37:55.209Z,100297.47
2024-03-09T12:40:27.724Z,100291.50
2024-03-09T12:42:58.563Z,100287.25
2024-03-09T12:45:28.099Z,100296.66
2024-03-09T12:47:59.979Z,100300.97
2024-03-09T12:50:29.622Z,100304.38
2024-03-09T12:53:01.920Z,100300.09
2024-03-09T12:55:47.851Z,100300.97
2024-03-09T12:58:23.004Z,100279.63
2024-03-09T13:01:07.084Z,100289.03
2024-03-09T13:03:44.199Z,100289.91
2024-03-09T13:06:19.853Z,100281.34
2024-03-09T13:08:48.861Z,100271.97
2024-03-09T13:11:23.281Z,100268.53
2024-03-09T13:13:52.000Z,100254.03
2024-03-09T13:16:22.659Z,100255.63
2024-03-09T13:18:56.657Z,100251.34
2024-03-09T13:21:26.134Z,100247.91
2024-03-09T13:24:00.090Z,100235.88
2024-03-09T13:26:30.001Z,100233.28
2024-03-09T13:28:59.090Z,100234.16
2024-03-09T13:31:29.390Z,100243.56
2024-03-09T13:34:01.720Z,100255.63
2024-03-09T13:36:43.235Z,100255.63
2024-03-09T13:39:20.231Z,100250.53
2024-03-09T13:41:50.451Z,100249.72
2024-03-09T13:44:26.334Z,100252.28
2024-03-09T13:47:13.687Z,100248.84
2024-03-09T13:50:15.312Z,100242.81
2024-03-09T13:52:46.432Z,100240.25
2024-03-09T13:55:20.654Z,100235.97
2024-03-09T13:57:55.665Z,100225.75
2024-03-09T14:00:29.995Z,100200.84
2024-03-09T14:03:01.460Z,100193.19
2024-03-09T14:05:46.257Z,100197.47
2024-03-09T14:08:16.883Z,100196.66
2024-03-09T14:10:57.519Z,100197.47
2024-03-09T14:13:28.418Z,100184.56
2024-03-09T14:16:00.014Z,100178.59
2024-03-09T14:18:30.732Z,100179.47
2024-03-09T14:21:01.379Z,100168.38
2024-03-09T14:23:47.659Z,100168.31
2024-03-09T14:26:32.343Z,100170.91
2024-03-09T14:29:19.535Z,100155.53
2024-03-09T14:32:00.699Z,100150.38
2024-03-09T14:34:53.581Z,100150.38
2024-03-09T14:37:23.748Z,100129.00
2024-03-09T14:39:58.841Z,100119.63
2024-03-09T14:42:28.892Z,100109.44
2024-03-09T14:45:03.277Z,100107.75
2024-03-09T14:47:46.643Z,100106.00
2024-03-09T14:50:21.615Z,100105.09
2024-03-09T14:52:56.793Z,100104.25
2024-03-09T14:55:29.713Z,100092.34
2024-03-09T14:58:07.500Z,100092.41
2024-03-09T15:00:46.283Z,100091.56
2024-03-09T15:03:45.921Z,100086.38
2024-03-09T15:06:18.937Z,100082.91
2024-03-09T15:08:55.091Z,100071.75
2024-03-09T15:11:23.707Z,100067.50
2024-03-09T15:14:02.932Z,100055.53
2024-03-09T15:16:46.289Z,100049.50
2024-03-09T15:19:25.990Z,100054.59
2024-03-09T15:21:59.287Z,100023.75
2024-03-09T15:24:28.546Z,100020.34
2024-03-09T15:27:00.224Z,100017.81
2024-03-09T15:29:38.937Z,100024.63
2024-03-09T15:32:21.238Z,100020.28
2024-03-09T15:34:56.268Z,99987.75
2024-03-09T15:37:27.843Z,100000.56
2024-03-09T15:40:06.274Z,99968.00
2024-03-09T15:42:42.799Z,99946.59
2024-03-09T15:45:16.243Z,99929.47
2024-03-09T15:47:55.054Z,99941.44
2024-03-09T15:50:27.755Z,99938.81
2024-03-09T15:53:01.506Z,99938.72
2024-03-09T15:55:41.472Z,99940.34
2024-03-09T15:58:16.032Z,99934.28
2024-03-09T16:00:49.467Z,99925.59
2024-03-09T16:03:20.386Z,99916.19
2024-03-09T16:05:53.466Z,99911.84
2024-03-09T16:08:24.840Z,99909.22
2024-03-09T16:10:58.356Z,99927.19
2024-03-09T16:13:27.887Z,99911.69
2024-03-09T16:15:56.877Z,99893.66
2024-03-09T16:18:28.810Z,99897.84
2024-03-09T16:21:17.680Z,99906.28
2024-03-09T16:23:56.946Z,99902.13
2024-03-09T16:26:26.787Z,99891.03
2024-03-09T16:28:55.989Z,99890.06
2024-03-09T16:31:28.723Z,99883.13
2024-03-09T16:34:19.391Z,99881.31
2024-03-09T16:36:55.152Z,99866.63
2024-03-09T16:39:24.858Z,99864.00
2024-03-09T16:42:00.001Z,99852.81
2024-03-09T16:44:29.498Z,99860.50
2024-03-09T16:47:00.903Z,99863.91
2024-03-09T16:49:33.813Z,99868.19
2024-03-09T16:52:14.836Z,99879.25
2024-03-09T16:54:44.878Z,99893.81
2024-03-09T16:57:15.910Z,99876.59
2024-03-09T16:59:46.965Z,99869.66
2024-03-09T17:02:23.599Z,99866.13
2024-03-09T17:04:58.928Z,99837.81
2024-03-09T17:07:40.417Z,99828.31
2024-03-09T17:10:17.405Z,99818.84
2024-03-09T17:12:54.210Z,99798.28
2024-03-09T17:15:25.294Z,99768.28
2024-03-09T17:17:55.942Z,99750.22
2024-03-09T17:20:29.912Z,99763.03
2024-03-09T17:23:19.824Z,99765.56
2024-03-09T17:25:51.133Z,99766.44
2024-03-09T17:28:22.500Z,99777.56
2024-03-09T17:30:58.139Z,99775.75
2024-03-09T17:33:39.928Z,99772.19
2024-03-09T17:36:14.108Z,99773.00
2024-03-09T17:38:49.354Z,99768.72
2024-03-09T17:41:31.829Z,99761.81
2024-03-09T17:44:12.745Z,99745.44
2024-03-09T17:46:47.008Z,99729.91
2024-03-09T17:49:16.591Z,99711.00
2024-03-09T17:51:46.286Z,99716.06
2024-03-09T17:54:16.589Z,99734.88
2024-03-09T17:56:55.481Z,99750.22
2024-03-09T17:59:26.318Z,99731.28
2024-03-09T18:01:57.870Z,99706.34
2024-03-09T18:04:27.315Z,99674.53
2024-03-09T18:06:56.569Z,99676.16
2024-03-09T18:09:25.332Z,99674.38
2024-03-09T18:11:54.945Z,99684.66
2024-03-09T18:14:25.411Z,99694.91
2024-03-09T18:17:11.408Z,99695.69
2024-03-09T18:19:43.006Z,99712.78
2024-03-09T18:22:14.533Z,99737.72
2024-03-09T18:24:52.248Z,99745.38
2024-03-09T18:27:24.260Z,99741.88
2024-03-09T18:29:54.555Z,99722.06
2024-03-09T18:32:28.241Z,99697.16
2024-03-09T18:35:00.400Z,99691.03
2024-03-09T18:37:28.967Z,99667.06
2024-03-09T18:40:16.184Z,99653.97
2024-03-09T18:42:47.776Z,99649.56
2024-03-09T18:45:18.408Z,99644.34
2024-03-09T18:47:51.055Z,99609.09
2024-03-09T18:50:25.533Z,99590.13
2024-03-09T18:52:59.994Z,99553.94
2024-03-09T18:55:29.668Z,99553.66
2024-03-09T18:58:17.534Z,99553.00
2024-03-09T19:00:46.813Z,99509.25
2024-03-09T19:03:19.685Z,99476.59
2024-03-09T19:05:50.093Z,99463.63
2024-03-09T19:08:24.025Z,99459.16
2024-03-09T19:10:59.121Z,99477.03
2024-03-09T19:13:28.545Z,99490.78
2024-03-09T19:16:07.910Z,99483.72
2024-03-09T19:18:41.302Z,99467.44
2024-03-09T19:21:14.047Z,99461.53
2024-03-09T19:23:46.877Z,99442.72
2024-03-09T19:26:20.716Z,99440.91
2024-03-09T19:28:53.364Z,99441.72
2024-03-09T19:31:26.595Z,99417.69
2024-03-09T19:34:12.246Z,99390.09
2024-03-09T19:36:42.950Z,99372.97
2024-03-09T19:39:20.798Z,99372.88
2024-03-09T19:41:50.994Z,99362.47
2024-03-09T19:44:20.754Z,99340.94
2024-03-09T19:46:54.219Z,99319.41
2024-03-09T19:49:22.783Z,99294.41
2024-03-09T19:51:58.893Z,99278.94
2024-03-09T19:54:29.473Z,99253.16
2024-03-09T19:56:59.418Z,99260.06
2024-03-09T19:59:28.676Z,99240.25
2024-03-09T20:01:59.130Z,99219.69
2024-03-09T20:04:27.724Z,99195.59
2024-03-09T20:07:01.341Z,99183.53
2024-03-09T20:09:34.730Z,99169.81
2024-03-09T20:12:19.609Z,99186.97
2024-03-09T20:14:51.815Z,99181.69
2024-03-09T20:17:25.106Z,99164.41
2024-03-09T20:19:57.413Z,99129.16
2024-03-09T20:22:31.083Z,99104.22
2024-03-09T20:25:19.391Z,99099.84
2024-03-09T20:27:57.436Z,99077.47
2024-03-09T20:30:28.239Z,99054.19
2024-03-09T20:33:06.946Z,99057.50
2024-03-09T20:35:42.737Z,99048.81
2024-03-09T20:38:31.983Z,99040.16
2024-03-09T20:41:14.937Z,99025.56
2024-03-09T20:43:58.821Z,99032.34
2024-03-09T20:46:39.769Z,99006.53
2024-03-09T20:49:19.105Z,98994.38
2024-03-09T20:51:54.221Z,99003.69
2024-03-09T20:54:56.507Z,99012.16
2024-03-09T20:57:43.194Z,99007.78
2024-03-09T21:00:24.574Z,98999.09
2024-03-09T21:06:02.678Z,98992.78
2024-03-09T21:08:50.892Z,99000.34
2024-03-09T21:11:54.811Z,99014.78
2024-03-09T21:14:27.901Z,99030.97
2024-03-09T21:17:00.190Z,99040.34
2024-03-09T21:19:45.212Z,99018.78
2024-03-09T21:22:23.480Z,99017.84
2024-03-09T21:25:18.999Z,99026.31
2024-03-09T21:27:48.738Z,99016.84
2024-03-09T21:30:22.648Z,99018.44
2024-03-09T21:32:53.086Z,99005.41
2024-03-09T21:35:22.016Z,98997.63
2024-03-09T21:37:59.240Z,98985.41
2024-03-09T21:40:31.390Z,98983.59
2024-03-09T21:43:28.109Z,98959.31
2024-03-09T21:46:12.711Z,98966.09
2024-03-09T21:48:43.864Z,98956.69
2024-03-09T21:51:18.383Z,98947.25
2024-03-09T21:53:52.752Z,98957.53
2024-03-09T21:56:26.910Z,98936.94
2024-03-09T21:59:02.466Z,98936.94
2024-03-09T22:01:56.926Z,98929.19
2024-03-09T22:04:45.169Z,98925.69
2024-03-09T22:07:17.428Z,98892.13
2024-03-09T22:09:55.022Z,98877.50
2024-03-09T22:12:26.482Z,98870.66
2024-03-09T22:14:59.588Z,98875.81
2024-03-09T22:17:40.439Z,98874.13
2024-03-09T22:20:21.013Z,98872.38
2024-03-09T22:22:56.768Z,98856.03
2024-03-09T22:25:38.119Z,98854.31
2024-03-09T22:28:15.749Z,98849.22
2024-03-09T22:30:49.778Z,98832.19
2024-03-09T22:33:25.404Z,98835.88
2024-03-09T22:35:56.500Z,98862.75
2024-03-09T22:38:26.265Z,98863.84
2024-03-09T22:40:58.248Z,98895.06
2024-03-09T22:43:46.795Z,98895.16
2024-03-09T22:46:22.240Z,98848.09
2024-03-09T22:48:57.108Z,98868.28
2024-03-09T22:51:37.907Z,98874.72
2024-03-09T22:54:18.511Z,98863.06
2024-03-09T22:56:56.169Z,98868.59
2024-03-09T22:59:26.269Z,98884.63
2024-03-09T23:01:55.063Z,98939.31
2024-03-09T23:04:24.480Z,98932.06
2024-03-09T23:06:52.887Z,98902.31
2024-03-09T23:09:21.424Z,98892.56
2024-03-09T23:11:53.649Z,98908.22
2024-03-09T23:14:23.139Z,98940.28
2024-03-09T23:16:52.196Z,98965.47
2024-03-09T23:19:25.008Z,98949.34
2024-03-09T23:22:08.995Z,98930.59
2024-03-09T23:24:54.616Z,98934.28
2024-03-09T23:27:24.583Z,98923.38
2024-03-09T23:29:54.785Z,98921.88
2024-03-09T23:32:24.318Z,98932.25
2024-03-09T23:34:53.756Z,98896.47
2024-03-09T23:37:22.120Z,98878.44
2024-03-09T23:39:53.794Z,98852.63
2024-03-09T23:42:25.349Z,98825.28
2024-03-09T23:44:55.154Z,98817.69
2024-03-09T23:47:23.894Z,98831.31
2024-03-09T23:49:53.442Z,98809.78
2024-03-09T23:52:22.287Z,98796.97
2024-03-09T23:54:56.638Z,98807.22
2024-03-09T23:57:40.011Z,98792.50
